• Join FlightAware (Why Join?)
  • Login
  • US Flag 
03:10PM EDT


 

Airport Tracker/Info


-or-


 

Live Flight TrackerFlight Track Log ✈ SWA3943 ✈ 12-Apr-2013 ✈ KBHM - KBWI

Flight Track Log - Related Links

Times and Time Zones

All times are in EDT time to prevent confusion due to time zone crossing. See the SWA3943 flight status page for this flight to view local times or setup timezone preferences in your user account.

Time Position Orientation Groundspeed Altitude Reporting Facility
EDT Latitude Longitude Course Direction KTS MPH feet Rate Location/Type
06:27PM 33.4969 -86.7639 188° South 189 217 5,800  Level Atlanta Center
06:28PM 33.4822 -86.6764 101° East 188 216 8,500 2,100 Climbing Atlanta Center
06:29PM 33.4678 -86.5714 99° East 248 285 10,000 720 Climbing Atlanta Center
06:30PM 33.4511 -86.4564 100° East 307 353 10,000 600 Level Atlanta Center
06:31PM 33.4369 -86.3314 98° East 332 382 11,200 2,100 Climbing Atlanta Center
06:32PM 33.4494 -86.2072 83° East 346 398 14,300 2,940 Climbing Atlanta Center
06:33PM 33.4644 -86.0733 82° East 380 437 17,100 2,820 Climbing Atlanta Center
06:34PM 33.4792 -85.9292 83° East 409 471 20,000 1,920 Climbing Atlanta Center
06:35PM 33.4914 -85.8147 83° East 424 488 21,000 900 Climbing Atlanta Center
06:36PM 33.5122 -85.6558 81° East 432 497 21,900 1,560 Climbing Atlanta Center
06:37PM 33.5267 -85.5017 84° East 450 518 24,200 2,220 Climbing Atlanta Center
06:38PM 33.5411 -85.3422 84° East 472 543 26,400 2,040 Climbing Atlanta Center
06:39PM 33.5572 -85.1781 83° East 491 565 28,300 1,860 Climbing Atlanta Center
06:40PM 33.5733 -85.0086 83° East 505 581 30,200 1,320 Climbing Atlanta Center
06:41PM 33.5914 -84.8367 83° East 519 597 31,000 420 Climbing Atlanta Center
06:42PM 33.6089 -84.6625 83° East 519 597 31,100 1,020 Climbing Atlanta Center
06:43PM 33.6264 -84.4728 84° East 519 597 33,100 1,860 Climbing Atlanta Center
06:44PM 33.6353 -84.2983 86° East 519 597 34,900 1,560 Climbing Atlanta Center
06:45PM 33.6606 -84.1411 79° East 524 603 36,300 1,080 Climbing Atlanta Center
06:46PM 33.7503 -83.9964 53° Northeast 521 600 37,100 900 Climbing Atlanta Center
06:47PM 33.8442 -83.8461 53° Northeast 549 632 38,100 900 Climbing Atlanta Center
06:48PM 33.9461 -83.6858 52° Northeast 549 632 39,000 420 Climbing Atlanta Center
06:49PM 34.0375 -83.5400 53° Northeast 549 632 39,000  Level Atlanta Center
06:50PM 34.1306 -83.3989 51° Northeast 549 632 39,000  Level Atlanta Center
06:51PM 34.2217 -83.2500 53° Northeast 549 632 39,000  Level Atlanta Center
06:52PM 34.3103 -83.1058 53° Northeast 544 626 39,000  Level Atlanta Center
06:53PM 34.4011 -82.9589 53° Northeast 544 626 39,000  Level Atlanta Center
06:54PM 34.4894 -82.8139 54° Northeast 538 619 39,000  Level Atlanta Center
06:55PM 34.5797 -82.6639 54° Northeast 533 613 39,000  Level Atlanta Center
06:56PM 34.6697 -82.5258 52° Northeast 533 613 39,000  Level Atlanta Center
06:57PM 34.7597 -82.3803 53° Northeast 533 613 39,000  Level Atlanta Center
06:58PM 34.8433 -82.2419 54° Northeast 543 625 39,000  Level Atlanta Center
06:59PM 34.9331 -82.0981 53° Northeast 543 625 39,000  Level Atlanta Center
07:00PM 35.0225 -81.9489 54° Northeast 538 619 39,000  Level Atlanta Center
07:01PM 35.1053 -81.7944 57° Northeast 543 625 39,000  Level Atlanta Center
07:02PM 35.1958 -81.6267 57° Northeast 543 625 39,000  Level Atlanta Center
07:03PM 35.2761 -81.4692 58° Northeast 538 619 39,000  Level Atlanta Center
07:04PM 35.3561 -81.3114 58° Northeast 538 619 39,000  Level Atlanta Center
07:05PM 35.4361 -81.1558 58° Northeast 538 619 39,000  Level Atlanta Center
07:06PM 35.5119 -81.0103 57° Northeast 551 634 39,000  Level Atlanta Center
07:07PM 35.5936 -80.8567 57° Northeast 551 634 39,000  Level Atlanta Center
07:08PM 35.6808 -80.6897 57° Northeast 539 620 39,000  Level Atlanta Center
07:09PM 35.7600 -80.5353 58° Northeast 539 620 39,000  Level Atlanta Center
07:10PM 35.9022 -80.2564 58° Northeast 530 610 39,000  Level Washington Center
07:11PM 35.9744 -80.1169 57° Northeast 535 616 39,000  Level Washington Center
07:12PM 36.0622 -79.9497 57° Northeast 527 606 39,000 -540 Level Washington Center
07:13PM 36.1489 -79.8003 54° Northeast 532 612 38,000 -1,020 Descending Washington Center
07:14PM 36.2336 -79.6453 56° Northeast 539 620 37,000 -960 Descending Washington Center
07:15PM 36.3178 -79.4950 55° Northeast 531 611 36,100 -900 Descending Washington Center
07:16PM 36.4042 -79.3392 55° Northeast 539 620 35,200 -900 Descending Washington Center
07:17PM 36.4836 -79.1958 55° Northeast 549 632 34,300 -1,260 Descending Washington Center
07:18PM 36.5844 -79.0297 53° Northeast 549 632 32,700 -1,860 Descending Washington Center
07:19PM 36.6528 -78.9033 56° Northeast 549 632 30,600 -1,860 Descending Washington Center
07:20PM 36.7494 -78.7181 57° Northeast 538 619 29,000 -840 Descending Washington Center
07:21PM 36.8325 -78.5708 55° Northeast 522 601 29,000 -300 Level Washington Center
07:22PM 36.9067 -78.4389 55° Northeast 510 587 28,400 -900 Descending Washington Center
07:23PM 36.9875 -78.2858 56° Northeast 519 597 27,300 -960 Descending Washington Center
07:24PM 37.0678 -78.1375 56° Northeast 519 597 26,500 -1,020 Descending Washington Center
07:25PM 37.1547 -77.9764 56° Northeast 514 592 25,300 -1,140 Descending Washington Center
07:26PM 37.2650 -77.8753 36° Northeast 491 565 24,300 -1,020 Descending Washington Center
07:27PM 37.3814 -77.7978 28° Northeast 480 552 23,300 -660 Descending Washington Center
07:28PM 37.4972 -77.7225 27° Northeast 470 541 23,000 -180 Descending Washington Center
07:29PM 37.6092 -77.6469 28° Northeast 465 535 23,000  Level Washington Center
07:30PM 37.7272 -77.5742 26° Northeast 460 529 23,000  Level Washington Center
07:31PM 37.8264 -77.5058 29° Northeast 455 524 23,000 -120 Level Washington Center
07:32PM 37.9381 -77.4322 27° Northeast 455 524 22,800 -960 Descending Washington Center
07:33PM 38.0392 -77.3661 27° Northeast 424 488 21,100 -1,740 Descending Washington Center
07:34PM 38.1361 -77.3025 27° Northeast 408 470 19,400 -1,860 Descending Washington Center
07:35PM 38.2186 -77.2172 39° Northeast 398 458 17,400 -1,500 Descending Washington Center
07:36PM 38.1633 -77.1286 128° Southeast 194 223 16,500 -960 Descending Washington Center
07:37PM 38.0864 -77.1114 170° South 183 211 15,500 -780 Descending Washington Center
07:38PM 38.0278 -77.1364 199° South 182 209 15,000 -300 Descending Washington Center
07:39PM 38.0708 -77.1875 317° Northwest 85 98 15,000 900 Level Washington Center
07:40PM 38.0928 -77.2592 291° West 154 177 16,800 960 Climbing Washington Center
07:41PM 38.0875 -77.3331 265° West 194 223 17,000 60 Climbing Washington Center
07:42PM 38.0411 -77.3714 213° Southwest 194 223 17,000  Level Washington Center
07:43PM 37.9742 -77.3831 188° South 188 216 17,000  Level Washington Center
07:44PM 37.9119 -77.3658 168° South 205 236 17,000  Level Washington Center
07:45PM 37.8989 -77.2656 99° East 203 234 17,000 -660 Level Washington Center
07:46PM 37.9892 -77.2175 23° Northeast 203 234 15,700 -1,020 Descending Washington Center
07:47PM 38.0811 -77.2008 North 265 305 15,000 -360 Descending Washington Center
07:48PM 38.1772 -77.1792 10° North 310 357 15,000  Level Washington Center
07:49PM 38.2839 -77.1578 North 343 395 15,000  Level Washington Center
07:50PM 38.3697 -77.1383 10° North 350 403 15,000 -840 Level Washington Center
07:51PM 38.4500 -77.0578 38° Northeast 349 402 13,400 -1,500 Descending Washington Center
07:52PM 38.5239 -76.9689 43° Northeast 355 409 12,000 -960 Descending Washington Center
07:53PM 38.5917 -76.8853 44° Northeast 350 403 11,500 -1,080 Descending Washington Center
07:54PM 38.6614 -76.8014 43° Northeast 339 390 9,900 -1,380 Descending Washington Center
07:55PM 38.7206 -76.7144 49° Northeast 326 375 8,800 -1,380 Descending Washington Center
07:56PM 38.7631 -76.6167 61° Northeast 315 362 7,200 -1,620 Descending Washington Center
07:57PM 38.8167 -76.5333 50° Northeast 307 353 6,000 -1,020 Descending Potomac TRACON
07:58PM 38.8833 -76.5500 349° North 233 268 5,400 -900 Descending Potomac TRACON
07:59PM 38.9333 -76.5833 333° Northwest 232 267 4,300 -720 Descending Potomac TRACON
08:00PM 38.9833 -76.6167 333° Northwest 199 229 4,000 -180 Descending Potomac TRACON
08:01PM 39.0000 -76.6667 293° West 181 208 4,000  Level Potomac TRACON
08:02PM 39.0333 -76.7333 303° West 183 211 4,000  Level Potomac TRACON
08:03PM 39.0500 -76.7833 293° West 186 214 4,000  Level Potomac TRACON
08:04PM 39.0833 -76.8500 303° West 182 209 4,000  Level Potomac TRACON
08:05PM 39.1000 -76.9000 293° West 183 211 4,000  Level Potomac TRACON
08:06PM 39.1167 -76.9667 288° West 182 209 4,000 -480 Level Potomac TRACON
08:07PM 39.1667 -76.9833 346° North 202 232 3,100 -900 Descending Potomac TRACON
08:08PM 39.1833 -76.9167 72° East 196 226 2,200 -600 Descending Potomac TRACON
08:09PM 39.1833 -76.8500 90° East 185 213 2,000 -360 Descending Potomac TRACON
08:10PM 39.1833 -76.7833 90° East 170 196 1,500 -600 Descending Potomac TRACON
08:11PM 39.1833 -76.7333 90° East 135 155 900 -720 Descending Potomac TRACON